Time;durP1;ratioP1;P1;durP2;ratioP2;P2;SDS_P1;SDS_P2;PMS_P1;PMS_P2;Temp;Humidity;BMP_temperature;BMP_pressure;BME280_temperature;BME280_humidity;BME280_pressure;Samples;Min_cycle;Max_cycle;Signal;HPM_P1;HPM_P2
2021/08/01 00:00:46;;;;;;;;;4.75;4.75;;;;;24.71;43.73;100804.00;5033797;28;51192;-57
2021/08/01 00:03:12;;;;;;;;;3.50;3.50;;;;;24.72;44.09;100802.91;5035344;28;51044;-55
2021/08/01 00:05:37;;;;;;;;;3.00;3.00;;;;;24.73;43.87;100795.44;5035372;28;51126;-56
2021/08/01 00:08:02;;;;;;;;;3.50;3.00;;;;;24.72;43.89;100804.84;5034946;28;51034;-56
2021/08/01 00:10:29;;;;;;;;;3.25;3.25;;;;;24.72;44.00;100802.06;5035241;28;51014;-53
2021/08/01 00:12:55;;;;;;;;;3.00;3.00;;;;;24.71;43.64;100801.25;5035386;28;51168;-57
2021/08/01 00:15:21;;;;;;;;;4.00;4.00;;;;;24.71;44.03;100800.41;5035489;28;51405;-56
2021/08/01 00:17:46;;;;;;;;;3.75;3.00;;;;;24.71;43.96;100801.25;5034663;28;51593;-55
2021/08/01 00:20:11;;;;;;;;;3.00;3.00;;;;;24.71;44.13;100801.25;5034890;28;51025;-57
2021/08/01 00:22:37;;;;;;;;;4.00;4.00;;;;;24.71;44.07;100797.63;5035674;28;51521;-57
2021/08/01 00:25:02;;;;;;;;;3.25;3.25;;;;;24.72;44.18;100799.31;5035481;28;51010;-56
2021/08/01 00:27:33;;;;;;;;;3.25;2.50;;;;;24.70;44.15;100799.56;5034764;28;51018;-61
2021/08/01 00:29:58;;;;;;;;;4.50;4.00;;;;;24.70;44.15;100805.09;5035081;28;51349;-57
2021/08/01 00:32:23;;;;;;;;;2.00;1.75;;;;;24.71;44.13;100809.56;5035019;28;51012;-56
2021/08/01 00:34:49;;;;;;;;;2.00;2.00;;;;;24.70;44.12;100805.09;5035018;28;51378;-54
2021/08/01 00:37:14;;;;;;;;;3.25;3.25;;;;;24.70;43.94;100807.88;5034833;28;55081;-57
2021/08/01 00:39:39;;;;;;;;;3.75;3.75;;;;;24.70;44.00;100809.81;5034915;28;51172;-56
2021/08/01 00:42:07;;;;;;;;;4.00;2.00;;;;;24.70;44.04;100804.25;5034723;28;51205;-57
2021/08/01 00:44:32;;;;;;;;;4.50;3.00;;;;;24.70;44.12;100812.56;5035495;28;51031;-56
2021/08/01 00:46:57;;;;;;;;;5.00;3.25;;;;;24.70;43.92;100807.88;5034908;28;51191;-56
2021/08/01 00:49:23;;;;;;;;;3.00;2.00;;;;;24.70;43.69;100802.34;5034771;28;51086;-57
2021/08/01 00:51:48;;;;;;;;;3.25;3.25;;;;;24.71;44.16;100805.94;5034738;28;51015;-55
2021/08/01 00:54:14;;;;;;;;;2.75;2.25;;;;;24.70;43.94;100805.09;5034992;28;50963;-55
2021/08/01 00:56:39;;;;;;;;;4.00;3.50;;;;;24.70;44.10;100805.09;5034577;28;51810;-56
2021/08/01 00:59:04;;;;;;;;;3.75;3.75;;;;;24.70;43.71;100807.03;5034760;28;51078;-54
2021/08/01 01:01:47;;;;;;;;;4.00;3.00;;;;;24.69;43.66;100803.41;5032947;28;50900;-56
2021/08/01 01:04:35;;;;;;;;;2.75;2.75;;;;;24.69;43.93;100800.63;5036305;28;51045;-56
2021/08/01 01:07:12;;;;;;;;;2.50;2.00;;;;;24.69;43.97;100805.31;5038000;28;52031;-56
2021/08/01 01:09:52;;;;;;;;;2.00;2.00;;;;;24.69;44.27;100802.56;5037626;28;50945;-56
2021/08/01 01:12:22;;;;;;;;;2.75;2.00;;;;;24.68;43.69;100807.25;5038184;28;51227;-56
2021/08/01 01:14:55;;;;;;;;;2.00;2.00;;;;;24.67;43.90;100805.59;5037998;28;51201;-56
2021/08/01 01:17:25;;;;;;;;;2.75;2.50;;;;;24.67;43.95;100815.81;5037335;28;52070;-56
2021/08/01 01:20:12;;;;;;;;;2.75;2.50;;;;;24.69;44.04;100808.09;5037410;28;51385;-56
2021/08/01 01:22:46;;;;;;;;;2.00;2.00;;;;;24.68;43.87;100811.97;5037635;28;51215;-56
2021/08/01 01:25:25;;;;;;;;;3.50;3.00;;;;;24.68;43.94;100804.50;5037656;28;51161;-55
2021/08/01 01:28:05;;;;;;;;;2.00;2.00;;;;;24.68;44.18;100806.41;5035387;28;52231;-56
2021/08/01 01:30:34;;;;;;;;;3.00;2.00;;;;;24.68;44.08;100806.41;5037414;28;51010;-56
2021/08/01 01:33:11;;;;;;;;;2.25;2.25;;;;;24.68;43.98;100817.50;5037408;28;50994;-56
2021/08/01 01:35:40;;;;;;;;;3.75;2.50;;;;;24.68;44.20;100806.41;5036620;28;51031;-56
2021/08/01 01:38:07;;;;;;;;;3.75;2.00;;;;;24.67;44.20;100810.28;5037087;28;52063;-56
2021/08/01 01:40:36;;;;;;;;;3.00;3.00;;;;;24.67;44.28;100819.44;5037350;28;51127;-56
2021/08/01 01:43:02;;;;;;;;;4.50;2.25;;;;;24.67;44.11;100818.59;5037411;28;51281;-56
2021/08/01 01:45:29;;;;;;;;;2.00;2.00;;;;;24.68;44.08;100817.50;5037768;28;51558;-56
2021/08/01 01:47:56;;;;;;;;;2.00;2.00;;;;;24.68;44.24;100817.50;5037023;28;51812;-56
2021/08/01 01:50:22;;;;;;;;;3.00;3.00;;;;;24.67;44.41;100813.91;5037310;28;51165;-56
2021/08/01 01:52:49;;;;;;;;;2.25;2.25;;;;;24.67;44.24;100808.34;5037338;28;51191;-56
2021/08/01 01:55:20;;;;;;;;;2.75;2.75;;;;;24.68;43.99;100811.97;5037827;28;50915;-55
2021/08/01 01:57:45;;;;;;;;;4.00;4.00;;;;;24.66;44.37;100806.69;5037253;28;51017;-55
2021/08/01 02:00:12;;;;;;;;;3.00;3.00;;;;;24.67;44.25;100797.28;5037220;28;51184;-56
2021/08/01 02:02:37;;;;;;;;;2.75;2.00;;;;;24.66;44.12;100803.06;5037152;28;51205;-56
2021/08/01 02:05:07;;;;;;;;;2.25;2.25;;;;;24.66;44.24;100801.13;5037590;28;51157;-54
2021/08/01 02:07:33;;;;;;;;;1.00;1.00;;;;;24.66;43.83;100800.31;5037182;28;50965;-57
2021/08/01 02:10:23;;;;;;;;;2.00;2.00;;;;;24.66;44.10;100798.38;5037449;28;50917;-55
2021/08/01 02:12:52;;;;;;;;;1.75;1.75;;;;;24.65;43.97;100802.22;5037539;28;50895;-57
2021/08/01 02:15:20;;;;;;;;;1.00;1.00;;;;;24.66;44.00;100803.06;5037113;28;50908;-55
2021/08/01 02:18:03;;;;;;;;;1.00;1.00;;;;;24.67;44.12;100807.50;5036584;28;51478;-56
2021/08/01 02:20:35;;;;;;;;;1.25;1.25;;;;;24.65;44.21;100793.91;5037080;28;51092;-56
2021/08/01 02:23:01;;;;;;;;;2.00;2.00;;;;;24.64;44.22;100789.47;5037065;28;50944;-54
2021/08/01 02:25:29;;;;;;;;;2.50;1.75;;;;;24.65;43.98;100796.69;5037575;28;50935;-54
2021/08/01 02:27:56;;;;;;;;;4.00;2.00;;;;;24.64;43.99;100788.63;5036609;28;52200;-55
2021/08/01 02:30:22;;;;;;;;;2.00;2.00;;;;;24.63;44.24;100787.81;5035811;28;51341;-56
2021/08/01 02:32:49;;;;;;;;;2.00;2.00;;;;;24.65;44.25;100795.84;5036888;28;51301;-55
2021/08/01 02:35:15;;;;;;;;;2.25;1.25;;;;;24.64;44.03;100795.00;5037408;28;51011;-56
2021/08/01 02:37:43;;;;;;;;;2.00;2.00;;;;;24.63;44.26;100787.81;5037434;28;52337;-56
2021/08/01 02:40:09;;;;;;;;;2.00;1.25;;;;;24.64;43.92;100800.56;5036703;28;51374;-56
2021/08/01 02:42:35;;;;;;;;;1.25;1.25;;;;;24.63;44.22;100785.03;5036836;28;50995;-56
2021/08/01 02:45:01;;;;;;;;;3.00;1.75;;;;;24.63;43.94;100787.81;5037235;28;51121;-57
2021/08/01 02:47:31;;;;;;;;;2.25;2.00;;;;;24.64;43.96;100786.72;5036482;28;51980;-56
2021/08/01 02:49:59;;;;;;;;;2.25;1.25;;;;;24.63;44.06;100787.81;5036720;28;51267;-57
2021/08/01 02:52:39;;;;;;;;;2.00;2.00;;;;;24.63;43.98;100779.50;5036875;28;51154;-56
2021/08/01 02:55:07;;;;;;;;;1.00;1.00;;;;;24.63;44.30;100793.34;5036991;28;50911;-55
2021/08/01 02:57:34;;;;;;;;;3.00;2.00;;;;;24.63;44.21;100792.50;5036538;28;51894;-56
2021/08/01 03:00:01;;;;;;;;;3.50;2.25;;;;;24.62;44.29;100791.66;5036641;28;51375;-56
2021/08/01 03:02:27;;;;;;;;;0.75;0.75;;;;;24.62;44.15;100794.44;5036539;28;51184;-56
2021/08/01 03:04:54;;;;;;;;;2.00;2.00;;;;;24.62;43.82;100797.19;5036819;28;51245;-57
2021/08/01 03:07:19;;;;;;;;;1.00;1.00;;;;;24.62;44.07;100802.75;5036324;28;51977;-56
2021/08/01 03:09:45;;;;;;;;;2.50;1.50;;;;;24.62;44.20;100793.59;5036565;28;51075;-56
2021/08/01 03:12:12;;;;;;;;;2.50;2.50;;;;;24.63;44.43;100795.28;5036499;28;51167;-55
2021/08/01 03:14:37;;;;;;;;;3.00;1.50;;;;;24.63;44.13;100798.88;5036894;28;51085;-55
2021/08/01 03:17:03;;;;;;;;;2.00;2.00;;;;;24.62;44.20;100799.13;5036049;28;51443;-55
2021/08/01 03:19:28;;;;;;;;;0.75;0.75;;;;;24.61;43.93;100812.16;5035994;28;51264;-55
2021/08/01 03:21:54;;;;;;;;;2.00;2.00;;;;;24.61;43.98;100803.00;5036320;28;51004;-54
2021/08/01 03:24:19;;;;;;;;;1.25;1.00;;;;;24.61;44.13;100794.69;5035968;28;51065;-55
2021/08/01 03:26:44;;;;;;;;;2.00;2.00;;;;;24.61;44.18;100795.53;5034492;28;57049;-55
2021/08/01 03:29:10;;;;;;;;;1.00;1.00;;;;;24.60;44.25;100791.09;5036113;28;51209;-55
2021/08/01 03:31:35;;;;;;;;;1.00;1.00;;;;;24.60;44.01;100793.84;5036086;28;51177;-56
2021/08/01 03:34:00;;;;;;;;;2.00;2.00;;;;;24.60;44.02;100793.00;5036227;28;51038;-56
2021/08/01 03:36:25;;;;;;;;;3.50;2.00;;;;;24.61;44.10;100789.16;5035671;28;51712;-55
2021/08/01 03:38:51;;;;;;;;;2.00;2.00;;;;;24.60;44.13;100793.84;5035918;28;51068;-55
2021/08/01 03:41:16;;;;;;;;;1.75;1.75;;;;;24.60;44.17;100804.09;5034479;28;51104;-54
2021/08/01 03:43:41;;;;;;;;;0.50;0.50;;;;;24.61;44.13;100786.38;5036319;28;50979;-57
2021/08/01 03:46:07;;;;;;;;;1.00;1.00;;;;;24.59;44.22;100783.84;5035567;28;51010;-56
2021/08/01 03:48:33;;;;;;;;;1.00;1.00;;;;;24.59;44.16;100794.91;5035618;28;51100;-55
2021/08/01 03:50:59;;;;;;;;;1.25;1.25;;;;;24.60;43.99;100788.31;5036182;28;51179;-55
2021/08/01 03:53:24;;;;;;;;;1.75;1.75;;;;;24.58;44.31;100787.69;5034469;28;50916;-56
2021/08/01 03:55:49;;;;;;;;;1.25;1.25;;;;;24.59;44.01;100780.22;5035843;28;50989;-56
2021/08/01 03:58:15;;;;;;;;;3.00;1.00;;;;;24.59;44.22;100791.31;5035885;28;51144;-56
2021/08/01 04:00:46;;;;;;;;;2.00;2.00;;;;;24.59;44.03;100791.31;5035735;28;51226;-56
2021/08/01 04:03:11;;;;;;;;;1.00;1.00;;;;;24.59;44.44;100788.53;5035795;28;51056;-55
2021/08/01 04:05:37;;;;;;;;;2.00;2.00;;;;;24.59;43.97;100791.31;5035103;28;59854;-56
2021/08/01 04:08:03;;;;;;;;;2.00;1.00;;;;;24.59;44.08;100778.28;5035726;28;51069;-56
2021/08/01 04:10:28;;;;;;;;;1.00;1.00;;;;;24.60;44.24;100784.72;5035692;28;51204;-55
2021/08/01 04:12:54;;;;;;;;;1.25;1.25;;;;;24.60;43.87;100782.78;5036162;28;50993;-56
2021/08/01 04:15:19;;;;;;;;;1.75;1.75;;;;;24.60;44.02;100776.41;5035539;28;50966;-56
2021/08/01 04:17:45;;;;;;;;;0.25;0.25;;;;;24.60;44.18;100781.94;5035065;28;51024;-55
2021/08/01 04:20:11;;;;;;;;;3.00;2.00;;;;;24.60;44.09;100784.72;5035321;28;51216;-56
2021/08/01 04:22:36;;;;;;;;;1.75;1.50;;;;;24.60;44.19;100784.72;5035701;28;50947;-61
2021/08/01 04:25:02;;;;;;;;;3.25;2.00;;;;;24.59;43.80;100781.06;5035616;28;51000;-56
2021/08/01 04:27:27;;;;;;;;;0.25;0.25;;;;;24.59;44.12;100783.84;5035285;28;50869;-55
2021/08/01 04:29:53;;;;;;;;;2.00;2.00;;;;;24.59;44.40;100783.00;5035448;28;51125;-56
2021/08/01 04:32:18;;;;;;;;;1.50;1.50;;;;;24.59;44.35;100783.00;5035559;28;51928;-54
2021/08/01 04:34:43;;;;;;;;;1.00;1.00;;;;;24.59;44.04;100780.22;5035021;28;54856;-56
2021/08/01 04:37:09;;;;;;;;;1.00;1.00;;;;;24.58;44.33;100778.56;5035849;28;51173;-56
2021/08/01 04:39:34;;;;;;;;;1.00;1.00;;;;;24.59;44.23;100791.31;5038728;28;51633;-56
2021/08/01 04:41:59;;;;;;;;;1.75;1.00;;;;;24.59;44.07;100783.84;5037643;28;51091;-56
2021/08/01 04:44:24;;;;;;;;;2.25;2.25;;;;;24.58;44.26;100790.47;5038475;28;59637;-55
2021/08/01 04:46:50;;;;;;;;;1.00;1.00;;;;;24.59;43.97;100783.00;5038443;28;51137;-55
2021/08/01 04:49:15;;;;;;;;;0.00;0.00;;;;;24.58;44.08;100782.16;5039017;28;51164;-56
2021/08/01 04:51:40;;;;;;;;;1.00;0.00;;;;;24.58;44.23;100784.94;5039059;28;51147;-57
2021/08/01 04:54:06;;;;;;;;;1.00;1.00;;;;;24.58;44.09;100784.09;5038376;28;60082;-57
2021/08/01 04:56:31;;;;;;;;;2.00;2.00;;;;;24.59;44.04;100794.06;5038906;28;51102;-55
2021/08/01 04:58:56;;;;;;;;;0.00;0.00;;;;;24.59;43.87;100788.53;5038749;28;51246;-56
2021/08/01 05:01:22;;;;;;;;;0.75;0.75;;;;;24.57;44.21;100783.25;5038844;28;51607;-56
2021/08/01 05:03:47;;;;;;;;;2.00;2.00;;;;;24.57;43.96;100783.25;5038270;28;51088;-56
2021/08/01 05:06:12;;;;;;;;;2.75;2.75;;;;;24.57;44.28;100782.41;5038522;28;51189;-55
2021/08/01 05:08:38;;;;;;;;;3.00;2.75;;;;;24.58;43.83;100790.47;5038848;28;51026;-56
2021/08/01 05:11:04;;;;;;;;;4.25;2.25;;;;;24.57;43.80;100788.78;5038709;28;50935;-54
2021/08/01 05:13:29;;;;;;;;;3.25;2.75;;;;;24.56;44.12;100792.66;5036873;28;52207;-56
2021/08/01 05:15:55;;;;;;;;;3.00;3.00;;;;;24.56;43.72;100792.66;5038323;28;51015;-57
2021/08/01 05:18:23;;;;;;;;;6.00;5.25;;;;;24.57;44.34;100796.25;5037959;28;50985;-56
2021/08/01 05:20:49;;;;;;;;;4.00;4.00;;;;;24.56;43.91;100794.59;5038547;28;51127;-56
2021/08/01 05:23:14;;;;;;;;;7.00;4.25;;;;;24.56;43.89;100798.19;5038134;28;51025;-56
2021/08/01 05:25:40;;;;;;;;;6.00;5.00;;;;;24.56;44.12;100802.91;5038559;28;51117;-55
2021/08/01 05:28:05;;;;;;;;;5.00;5.00;;;;;24.57;44.18;100799.03;5037904;28;51113;-54
2021/08/01 05:30:31;;;;;;;;;9.25;5.75;;;;;24.57;44.41;100799.88;5038315;28;51009;-56
2021/08/01 05:32:56;;;;;;;;;8.00;8.00;;;;;24.56;44.13;100792.66;5037753;28;51902;-55
2021/08/01 05:35:22;;;;;;;;;10.00;8.75;;;;;24.57;44.29;100794.34;5038084;28;51014;-56
2021/08/01 05:37:47;;;;;;;;;7.00;7.00;;;;;24.57;44.34;100797.09;5038048;28;51482;-56
2021/08/01 05:40:13;;;;;;;;;8.00;7.25;;;;;24.57;43.96;100801.81;5037982;28;51361;-54
2021/08/01 05:42:39;;;;;;;;;8.75;8.75;;;;;24.57;44.26;100799.03;5037743;28;51062;-55
2021/08/01 05:45:05;;;;;;;;;16.00;14.50;;;;;24.57;44.20;100810.09;5037832;28;50952;-54
2021/08/01 05:47:31;;;;;;;;;9.25;9.25;;;;;24.57;43.83;100799.88;5037856;28;51101;-55
2021/08/01 05:49:56;;;;;;;;;8.50;8.50;;;;;24.57;44.13;100799.88;5037079;28;51335;-55
2021/08/01 05:52:22;;;;;;;;;11.25;8.75;;;;;24.58;44.23;100803.47;5037512;28;51981;-56
2021/08/01 05:54:47;;;;;;;;;10.50;9.75;;;;;24.58;44.07;100806.25;5037741;28;51107;-56
2021/08/01 05:57:13;;;;;;;;;13.50;11.75;;;;;24.59;44.17;100802.38;5037648;28;50955;-56
2021/08/01 05:59:38;;;;;;;;;13.50;12.25;;;;;24.59;44.22;100803.22;5037918;28;51057;-55
2021/08/01 06:02:03;;;;;;;;;11.00;9.25;;;;;24.59;44.02;100806.00;5037118;28;51952;-55
2021/08/01 06:04:29;;;;;;;;;13.00;9.00;;;;;24.60;44.14;100804.94;5037502;28;51203;-55
2021/08/01 06:06:54;;;;;;;;;16.50;11.00;;;;;24.61;43.93;100806.59;5037683;28;51040;-55
2021/08/01 06:09:19;;;;;;;;;11.25;10.50;;;;;24.62;44.09;100804.69;5037747;28;51069;-56
2021/08/01 06:11:44;;;;;;;;;13.00;9.00;;;;;24.63;44.08;100809.13;5037189;28;50985;-56
2021/08/01 06:14:10;;;;;;;;;12.25;9.75;;;;;24.61;43.85;100803.84;5036025;28;51087;-55
2021/08/01 06:16:35;;;;;;;;;14.25;9.75;;;;;24.64;43.94;100799.72;5037063;28;51030;-55
2021/08/01 06:19:01;;;;;;;;;16.25;10.75;;;;;24.64;43.90;100814.41;5037213;28;51340;-56
2021/08/01 06:21:29;;;;;;;;;12.50;12.00;;;;;24.64;43.71;100808.03;5037063;28;51873;-56
2021/08/01 06:23:54;;;;;;;;;13.75;12.00;;;;;24.66;43.89;100816.91;5037152;28;50980;-56
2021/08/01 06:26:22;;;;;;;;;13.50;11.50;;;;;24.66;43.71;100825.22;5037210;28;51449;-56
2021/08/01 06:28:49;;;;;;;;;15.75;11.25;;;;;24.66;43.85;100830.75;5037423;28;51760;-54
2021/08/01 06:31:15;;;;;;;;;11.00;8.75;;;;;24.65;43.70;100827.16;5036873;28;51294;-56
2021/08/01 06:33:41;;;;;;;;;11.50;9.50;;;;;24.64;43.96;100825.47;5037012;28;51024;-56
2021/08/01 06:36:08;;;;;;;;;10.25;8.00;;;;;24.64;43.89;100828.25;5037334;28;51010;-56
2021/08/01 06:38:34;;;;;;;;;11.00;8.50;;;;;24.65;44.06;100826.31;5037180;28;51023;-56
2021/08/01 06:40:59;;;;;;;;;8.75;8.75;;;;;24.66;43.71;100825.22;5036848;28;51102;-55
2021/08/01 06:43:25;;;;;;;;;10.00;10.00;;;;;24.67;44.05;100833.28;5036769;28;51050;-56
2021/08/01 06:45:50;;;;;;;;;8.00;8.00;;;;;24.68;43.94;100829.41;5037042;28;51010;-55
2021/08/01 06:48:15;;;;;;;;;5.25;5.00;;;;;24.71;43.93;100833.63;5036952;28;50933;-56
2021/08/01 06:50:41;;;;;;;;;12.75;10.00;;;;;24.73;43.81;100829.53;5036605;28;51911;-55
2021/08/01 06:53:06;;;;;;;;;7.00;7.00;;;;;24.75;43.82;100829.25;5036767;28;51083;-57
2021/08/01 06:55:32;;;;;;;;;9.75;7.75;;;;;24.77;43.74;100822.38;5036956;28;50895;-56
2021/08/01 06:57:57;;;;;;;;;7.50;7.25;;;;;24.78;43.69;100831.53;5037028;28;50966;-55
2021/08/01 07:00:23;;;;;;;;;5.50;5.50;;;;;24.81;43.67;100830.22;5036250;28;51851;-54
2021/08/01 07:02:55;;;;;;;;;8.75;7.75;;;;;24.83;43.64;100828.84;5036472;28;51138;-56
2021/08/01 07:05:22;;;;;;;;;6.00;5.75;;;;;24.86;43.54;100833.88;5036531;28;51072;-54
2021/08/01 07:07:48;;;;;;;;;9.00;7.25;;;;;24.88;43.47;100828.09;5036724;28;50964;-56
2021/08/01 07:10:13;;;;;;;;;8.50;7.00;;;;;24.91;43.87;100827.59;5036618;28;51116;-56
2021/08/01 07:12:41;;;;;;;;;10.00;7.75;;;;;24.96;43.72;100830.44;5036387;28;51292;-57
2021/08/01 07:15:25;;;;;;;;;11.75;9.00;;;;;24.98;43.47;100840.16;5036771;28;50994;-55
2021/08/01 07:17:55;;;;;;;;;7.00;7.00;;;;;25.02;43.15;100846.09;5036232;28;51236;-54
2021/08/01 07:20:20;;;;;;;;;4.75;3.75;;;;;25.03;43.54;100845.84;5035032;28;51071;-56
2021/08/01 07:22:46;;;;;;;;;8.00;6.00;;;;;25.08;43.38;100849.78;5027447;28;51209;-56
2021/08/01 07:25:11;;;;;;;;;5.75;5.75;;;;;25.10;43.29;100850.34;5016752;28;51097;-56
2021/08/01 07:27:36;;;;;;;;;7.00;7.00;;;;;25.14;43.34;100851.56;5031573;28;50957;-56
2021/08/01 07:30:03;;;;;;;;;6.00;4.25;;;;;25.16;42.99;100854.91;5036160;28;50965;-57
2021/08/01 07:32:29;;;;;;;;;5.00;5.00;;;;;25.15;43.10;100858.78;5036456;28;51469;-56
2021/08/01 07:34:54;;;;;;;;;6.75;5.00;;;;;25.15;43.10;100867.94;5036203;28;51216;-56
2021/08/01 07:37:19;;;;;;;;;8.25;6.50;;;;;25.15;43.03;100861.53;5036299;28;51004;-59
2021/08/01 07:39:45;;;;;;;;;7.50;6.25;;;;;25.18;42.86;100863.78;5035961;28;51979;-56
2021/08/01 07:42:11;;;;;;;;;6.00;4.00;;;;;25.20;42.93;100861.59;5036070;28;50995;-56
2021/08/01 07:44:48;;;;;;;;;5.50;3.25;;;;;25.23;42.79;100864.72;5036353;28;51177;-55
2021/08/01 07:47:18;;;;;;;;;7.00;4.00;;;;;25.26;42.77;100861.44;5035975;28;51339;-55
2021/08/01 07:49:45;;;;;;;;;4.00;3.75;;;;;25.27;42.85;100863.13;5036073;28;51156;-58
2021/08/01 07:52:11;;;;;;;;;4.00;4.00;;;;;25.28;42.98;100869.50;5035786;28;51085;-57
2021/08/01 07:54:36;;;;;;;;;7.50;4.25;;;;;25.28;43.04;100869.50;5036190;28;51080;-56
2021/08/01 07:57:02;;;;;;;;;5.25;5.25;;;;;25.30;42.78;100870.91;5035804;28;51158;-56
2021/08/01 07:59:27;;;;;;;;;5.00;5.00;;;;;25.32;42.70;100868.75;5035700;28;51108;-56
2021/08/01 08:01:53;;;;;;;;;3.25;3.00;;;;;25.33;42.91;100869.59;5036072;28;51140;-57
2021/08/01 08:04:18;;;;;;;;;2.25;2.25;;;;;25.33;42.79;100864.88;5035718;28;51032;-56
2021/08/01 08:06:43;;;;;;;;;2.75;2.75;;;;;25.34;42.46;100868.50;5035509;28;51143;-57
2021/08/01 08:09:09;;;;;;;;;3.00;3.00;;;;;25.36;42.76;100868.25;5035523;28;51635;-56
2021/08/01 08:11:34;;;;;;;;;6.00;5.00;;;;;25.36;42.77;100869.06;5035739;28;51123;-56
2021/08/01 08:13:59;;;;;;;;;3.75;3.50;;;;;25.37;42.64;100872.69;5035006;28;50981;-56
2021/08/01 08:16:25;;;;;;;;;4.00;2.75;;;;;25.35;42.56;100870.19;5035900;28;51123;-56
2021/08/01 08:18:50;;;;;;;;;4.25;3.00;;;;;25.34;42.54;100865.72;5034956;28;51067;-56
2021/08/01 08:21:16;;;;;;;;;4.00;4.00;;;;;25.33;42.55;100872.38;5035608;28;51033;-55
2021/08/01 08:23:42;;;;;;;;;4.75;2.00;;;;;25.31;42.41;100872.59;5035448;28;50979;-55
2021/08/01 08:26:07;;;;;;;;;3.75;3.75;;;;;25.31;42.73;100878.13;5035678;28;51037;-55
2021/08/01 08:28:33;;;;;;;;;2.50;2.50;;;;;25.29;42.63;100872.00;5035339;28;51006;-56
2021/08/01 08:30:59;;;;;;;;;2.75;2.75;;;;;25.29;42.35;100885.88;5035277;28;51077;-56
2021/08/01 08:33:25;;;;;;;;;2.00;2.00;;;;;25.29;42.40;100885.03;5035546;28;51033;-57
2021/08/01 08:35:50;;;;;;;;;2.75;2.75;;;;;25.27;42.61;100879.75;5035847;28;51036;-56
2021/08/01 08:38:15;;;;;;;;;1.75;1.75;;;;;25.28;42.43;100877.81;5035230;28;51774;-58
2021/08/01 08:40:41;;;;;;;;;3.50;3.50;;;;;25.30;42.51;100876.47;5035535;28;51112;-56
2021/08/01 08:43:08;;;;;;;;;3.00;3.00;;;;;25.31;42.30;100889.22;5034271;28;51089;-57
2021/08/01 08:45:34;;;;;;;;;3.00;2.75;;;;;25.32;42.60;100879.84;5035658;28;51145;-58
2021/08/01 08:47:59;;;;;;;;;2.00;2.00;;;;;25.33;42.77;100889.84;5034773;28;51875;-57
2021/08/01 08:50:25;;;;;;;;;3.00;3.00;;;;;25.35;42.47;100891.53;5035237;28;50970;-57
2021/08/01 08:53:01;;;;;;;;;2.25;2.25;;;;;25.36;42.39;100882.09;5035259;28;50890;-56
2021/08/01 08:55:32;;;;;;;;;1.00;1.00;;;;;25.38;42.63;100879.91;5035330;28;50951;-55
2021/08/01 08:58:00;;;;;;;;;4.00;4.00;;;;;25.39;42.62;100878.81;5034897;28;51140;-55
2021/08/01 09:00:27;;;;;;;;;3.00;2.00;;;;;25.39;42.44;100885.19;5034752;28;50883;-57
2021/08/01 09:02:53;;;;;;;;;1.00;1.00;;;;;25.41;42.32;100884.94;5034825;28;51188;-56
2021/08/01 09:05:18;;;;;;;;;2.00;2.00;;;;;25.42;42.33;100886.63;5035346;28;50923;-58
2021/08/01 09:07:43;;;;;;;;;3.00;1.00;;;;;25.42;42.52;100893.00;5034792;28;51756;-55
2021/08/01 09:10:10;;;;;;;;;2.50;2.00;;;;;25.42;42.39;100890.22;5034775;28;51133;-56
2021/08/01 09:12:44;;;;;;;;;3.00;2.00;;;;;25.41;42.41;100896.88;5034980;28;51057;-55
2021/08/01 09:15:18;;;;;;;;;2.50;0.50;;;;;25.41;42.14;100888.53;5035124;28;51105;-56
2021/08/01 09:17:45;;;;;;;;;4.75;3.00;;;;;25.41;42.24;100888.53;5033943;28;51864;-55
2021/08/01 09:20:25;;;;;;;;;3.00;2.50;;;;;25.41;42.16;100888.53;5034372;28;51248;-55
2021/08/01 09:23:11;;;;;;;;;3.00;1.00;;;;;25.44;42.18;100888.06;5034449;28;51196;-54
2021/08/01 09:25:39;;;;;;;;;1.00;1.00;;;;;25.45;42.46;100892.50;5037278;28;51204;-55
2021/08/01 09:28:18;;;;;;;;;1.25;1.25;;;;;25.46;42.45;100885.03;5037537;28;52412;-54
2021/08/01 09:30:57;;;;;;;;;2.00;2.00;;;;;25.46;42.29;100891.41;5037611;28;51355;-55
2021/08/01 09:33:31;;;;;;;;;1.25;1.25;;;;;25.45;42.36;100900.00;5038046;28;50895;-54
2021/08/01 09:36:07;;;;;;;;;1.00;1.00;;;;;25.45;42.04;100892.50;5038557;28;51245;-55
2021/08/01 09:39:04;;;;;;;;;0.50;0.50;;;;;25.45;42.31;100894.44;5038035;28;51026;-56
2021/08/01 09:41:32;;;;;;;;;1.25;1.25;;;;;25.44;42.16;100887.22;5025678;28;51340;-54
2021/08/01 09:44:04;;;;;;;;;1.00;1.00;;;;;25.45;42.00;100891.66;5038203;28;51116;-54
2021/08/01 09:46:43;;;;;;;;;1.00;1.00;;;;;25.44;42.07;100890.00;5037995;28;51110;-56
2021/08/01 09:49:13;;;;;;;;;0.75;0.75;;;;;25.45;42.13;100888.91;5037538;28;51167;-56
2021/08/01 09:51:43;;;;;;;;;2.75;2.50;;;;;25.46;41.87;100887.81;5037401;28;50966;-56
2021/08/01 09:54:10;;;;;;;;;2.00;1.00;;;;;25.46;42.29;100890.56;5037899;28;51282;-57
2021/08/01 09:56:36;;;;;;;;;0.50;0.50;;;;;25.46;41.93;100888.63;5038154;28;50970;-56
2021/08/01 09:59:01;;;;;;;;;1.00;1.00;;;;;25.47;42.31;100875.63;5036976;28;51043;-57
2021/08/01 10:01:27;;;;;;;;;2.50;1.75;;;;;25.47;42.09;100881.16;5037364;28;51106;-56
2021/08/01 10:03:52;;;;;;;;;2.25;1.50;;;;;25.47;42.10;100881.16;5035612;28;51014;-56
2021/08/01 10:06:22;;;;;;;;;2.00;2.00;;;;;25.49;42.03;100885.34;5037113;28;51388;-56
2021/08/01 10:08:52;;;;;;;;;2.00;2.00;;;;;25.49;41.93;100878.97;5036916;28;52130;-57
2021/08/01 10:11:20;;;;;;;;;0.00;0.00;;;;;25.50;42.03;100870.38;5037448;28;50876;-55
2021/08/01 10:13:49;;;;;;;;;0.00;0.00;;;;;25.51;41.77;100877.59;5037171;28;50987;-55
2021/08/01 10:16:14;;;;;;;;;2.00;2.00;;;;;25.52;41.95;100867.34;5036786;28;50980;-56
2021/08/01 10:18:42;;;;;;;;;1.00;1.00;;;;;25.52;42.04;100861.81;5036752;28;51369;-56
2021/08/01 10:21:08;;;;;;;;;2.00;1.00;;;;;25.53;41.63;100871.81;5037015;28;51036;-56
2021/08/01 10:23:36;;;;;;;;;2.25;1.00;;;;;25.53;41.92;100869.03;5037058;28;51121;-56
2021/08/01 10:26:04;;;;;;;;;2.75;0.50;;;;;25.53;41.90;100866.25;5036898;28;51081;-56
2021/08/01 10:28:32;;;;;;;;;1.00;1.00;;;;;25.53;41.68;100866.25;5036604;28;50990;-56
2021/08/01 10:31:09;;;;;;;;;2.00;1.00;;;;;25.53;41.98;100867.13;5036692;28;51170;-55
2021/08/01 10:33:45;;;;;;;;;1.00;1.00;;;;;25.53;41.74;100866.25;5037002;28;51128;-57
2021/08/01 10:36:13;;;;;;;;;1.00;1.00;;;;;25.54;41.53;100859.63;5036610;28;51491;-56
2021/08/01 10:38:40;;;;;;;;;1.00;1.00;;;;;25.54;41.66;100862.41;5036678;28;52078;-57
2021/08/01 10:41:09;;;;;;;;;1.75;1.75;;;;;25.55;41.82;100861.31;5036658;28;51198;-57
2021/08/01 10:43:37;;;;;;;;;0.00;0.00;;;;;25.55;41.52;100861.31;5036302;28;51191;-54
2021/08/01 10:46:03;;;;;;;;;1.00;1.00;;;;;25.55;41.78;100864.09;5036595;28;51065;-55
2021/08/01 10:48:30;;;;;;;;;1.00;1.00;;;;;25.54;41.87;100863.25;5035791;28;52584;-54
2021/08/01 10:50:57;;;;;;;;;1.25;1.00;;;;;25.54;41.61;100854.09;5035868;28;51047;-56
2021/08/01 10:53:24;;;;;;;;;2.25;1.00;;;;;25.55;41.64;100858.53;5036402;28;51020;-55
2021/08/01 10:56:08;;;;;;;;;1.00;1.00;;;;;25.55;41.58;100858.53;5036329;28;51327;-55
2021/08/01 10:58:37;;;;;;;;;1.75;1.50;;;;;25.54;41.78;100860.47;5035340;28;50887;-57
2021/08/01 11:01:04;;;;;;;;;0.50;0.50;;;;;25.54;41.39;100848.53;5035698;28;51002;-57
2021/08/01 11:03:32;;;;;;;;;0.25;0.25;;;;;25.54;41.61;100854.94;5035530;28;50987;-58
2021/08/01 11:05:58;;;;;;;;;0.75;0.75;;;;;25.55;41.75;100853.00;5035827;28;51084;-57
2021/08/01 11:08:24;;;;;;;;;1.00;0.00;;;;;25.55;41.70;100855.75;5034248;28;51113;-56
2021/08/01 11:11:21;;;;;;;;;2.25;0.50;;;;;25.54;41.61;100848.53;5035949;28;51400;-55
2021/08/01 11:13:48;;;;;;;;;0.00;0.00;;;;;25.54;41.81;100837.44;5002371;28;51361;-57
2021/08/01 11:16:33;;;;;;;;;1.00;1.00;;;;;25.54;41.59;100843.84;5035397;28;51047;-56
2021/08/01 11:19:02;;;;;;;;;0.75;0.75;;;;;25.53;41.71;100833.84;5024500;28;51244;-56
2021/08/01 11:21:36;;;;;;;;;0.00;0.00;;;;;25.54;41.33;100843.84;5035842;28;51109;-55
2021/08/01 11:24:10;;;;;;;;;1.00;0.25;;;;;25.53;41.59;100835.75;5036129;28;51036;-56
2021/08/01 11:26:37;;;;;;;;;1.25;1.00;;;;;25.54;41.50;100840.22;5035654;28;50965;-55